createdAt,value
2023-04-07T00:00:06.756Z,64.14
2023-04-07T03:00:35.104Z,65.48
2023-04-07T03:03:14.053Z,65.40
2023-04-07T03:05:45.882Z,65.52
2023-04-07T03:08:14.742Z,65.62
2023-04-07T03:10:44.267Z,65.78
2023-04-07T03:13:16.512Z,65.62
2023-04-07T03:15:45.926Z,65.77
2023-04-07T03:18:17.018Z,65.67
2023-04-07T03:20:48.505Z,65.88
2023-04-07T03:23:17.948Z,65.87
2023-04-07T03:25:47.552Z,65.98
2023-04-07T03:28:17.154Z,65.86
2023-04-07T03:30:46.198Z,65.95
2023-04-07T03:33:14.673Z,66.03
2023-04-07T03:35:43.313Z,66.01
2023-04-07T03:38:12.990Z,65.88
2023-04-07T03:40:41.599Z,66.24
2023-04-07T03:43:14.466Z,66.19
2023-04-07T03:45:43.634Z,66.07
2023-04-07T03:48:13.066Z,66.26
2023-04-07T03:50:49.832Z,66.21
2023-04-07T03:53:20.133Z,66.39
2023-04-07T03:55:48.940Z,66.25
2023-04-07T03:58:42.985Z,66.26
2023-04-07T04:01:14.341Z,66.39
2023-04-07T04:03:44.231Z,66.34
2023-04-07T04:06:39.278Z,66.44
2023-04-07T04:09:27.270Z,66.31
2023-04-07T04:11:56.565Z,66.45
2023-04-07T04:14:25.687Z,66.58
2023-04-07T04:16:58.508Z,66.63
2023-04-07T04:19:53.120Z,66.68
2023-04-07T04:22:42.210Z,66.68
2023-04-07T04:25:11.195Z,66.55
2023-04-07T04:27:41.398Z,66.72
2023-04-07T04:30:16.905Z,66.56
2023-04-07T04:32:51.729Z,66.74
2023-04-07T04:35:24.501Z,66.75
2023-04-07T04:38:03.555Z,66.83
2023-04-07T04:40:32.819Z,66.81
2023-04-07T04:43:02.031Z,66.77
2023-04-07T04:45:31.940Z,66.90
2023-04-07T04:48:00.982Z,66.91
2023-04-07T04:50:29.605Z,66.89
2023-04-07T04:52:58.166Z,66.89
2023-04-07T04:55:26.728Z,66.74
2023-04-07T04:57:56.216Z,66.87
2023-04-07T05:00:33.014Z,67.05
2023-04-07T05:03:04.772Z,66.93
2023-04-07T05:05:36.598Z,66.98
2023-04-07T05:08:07.009Z,67.10
2023-04-07T05:10:39.745Z,67.08
2023-04-07T05:13:10.477Z,67.21
2023-04-07T05:15:41.670Z,67.17
2023-04-07T05:18:12.301Z,67.11
2023-04-07T05:20:42.281Z,67.19
2023-04-07T05:23:11.748Z,67.10
2023-04-07T05:25:41.046Z,67.10
2023-04-07T05:28:10.600Z,67.22
2023-04-07T05:30:39.834Z,67.36
2023-04-07T05:33:09.213Z,67.23
2023-04-07T05:35:46.740Z,67.33
2023-04-07T05:38:17.364Z,67.48
2023-04-07T05:40:47.846Z,67.57
2023-04-07T05:43:23.144Z,67.48
2023-04-07T05:45:52.143Z,67.44
2023-04-07T05:48:22.198Z,67.63
2023-04-07T05:50:51.570Z,67.51
2023-04-07T05:53:20.362Z,67.56
2023-04-07T05:55:49.191Z,67.49
2023-04-07T05:58:27.191Z,67.52
2023-04-07T06:00:57.729Z,67.67
2023-04-07T06:03:27.146Z,67.52
2023-04-07T06:06:03.863Z,67.66
2023-04-07T06:08:32.958Z,67.51
2023-04-07T06:11:02.459Z,67.55
2023-04-07T06:13:31.290Z,67.66
2023-04-07T06:15:59.659Z,67.67
2023-04-07T06:18:28.513Z,67.81
2023-04-07T06:20:57.788Z,67.88
2023-04-07T06:23:28.081Z,67.72
2023-04-07T06:25:57.327Z,67.72
2023-04-07T06:28:29.330Z,67.97
2023-04-07T06:30:59.564Z,67.75
2023-04-07T06:33:29.038Z,67.83
2023-04-07T06:35:59.504Z,67.64
2023-04-07T06:38:28.891Z,67.93
2023-04-07T06:40:57.831Z,68.09
2023-04-07T06:43:26.144Z,67.95
2023-04-07T06:46:03.155Z,68.14
2023-04-07T06:48:31.371Z,67.96
2023-04-07T06:51:00.751Z,68.30
2023-04-07T06:53:29.175Z,67.88
2023-04-07T06:56:04.711Z,68.02
2023-04-07T06:58:33.759Z,68.25
2023-04-07T07:01:03.779Z,68.29
2023-04-07T07:03:32.845Z,68.02
2023-04-07T07:06:01.927Z,68.02
2023-04-07T07:08:31.092Z,68.01
2023-04-07T07:10:59.581Z,68.24
2023-04-07T07:13:28.767Z,68.07
2023-04-07T07:15:57.189Z,67.95
2023-04-07T07:18:25.805Z,67.90
2023-04-07T07:20:54.044Z,67.89
2023-04-07T07:23:22.334Z,67.85
2023-04-07T07:25:51.464Z,67.86
2023-04-07T07:28:21.915Z,68.59
2023-04-07T07:30:50.166Z,68.39
2023-04-07T07:33:19.039Z,68.35
2023-04-07T07:35:47.578Z,68.29
2023-04-07T07:38:16.294Z,68.34
2023-04-07T07:40:44.440Z,68.23
2023-04-07T07:43:12.750Z,68.51
2023-04-07T07:45:41.132Z,68.27
2023-04-07T07:48:09.743Z,68.29
2023-04-07T07:50:38.153Z,68.31
2023-04-07T07:53:07.107Z,68.23
2023-04-07T07:55:35.453Z,68.27
2023-04-07T07:58:03.795Z,68.29
2023-04-07T08:00:32.215Z,67.97
2023-04-07T08:03:00.822Z,68.04
2023-04-07T08:05:29.494Z,68.07
2023-04-07T08:07:58.061Z,67.92
2023-04-07T08:10:26.657Z,68.16
2023-04-07T08:12:55.389Z,68.28
2023-04-07T08:15:23.862Z,68.42
2023-04-07T08:17:54.603Z,68.44
2023-04-07T08:20:24.121Z,68.30
2023-04-07T08:22:52.590Z,68.15
2023-04-07T08:25:21.269Z,68.46
2023-04-07T08:27:50.005Z,68.16
2023-04-07T08:30:19.282Z,68.29
2023-04-07T08:32:48.121Z,68.02
2023-04-07T08:35:16.650Z,68.32
2023-04-07T08:37:44.987Z,68.16
2023-04-07T08:40:13.704Z,68.20
2023-04-07T08:42:43.726Z,68.45
2023-04-07T08:45:12.909Z,68.50
2023-04-07T08:47:44.279Z,68.27
2023-04-07T08:50:12.966Z,68.28
2023-04-07T08:52:44.679Z,68.32
2023-04-07T08:55:13.439Z,68.45
2023-04-07T08:57:42.916Z,68.40
2023-04-07T09:00:11.904Z,68.44
2023-04-07T09:02:44.084Z,68.45
2023-04-07T09:05:14.770Z,68.66
2023-04-07T09:07:46.389Z,68.61
2023-04-07T09:10:18.535Z,68.63
2023-04-07T09:12:47.644Z,68.54
2023-04-07T09:15:16.050Z,68.40
2023-04-07T09:17:44.546Z,68.28
2023-04-07T09:20:13.196Z,68.45
2023-04-07T09:22:48.302Z,68.42
2023-04-07T09:25:22.749Z,68.31
2023-04-07T09:27:58.647Z,67.90
2023-04-07T09:30:27.446Z,68.26
2023-04-07T09:32:56.659Z,67.98
2023-04-07T09:35:25.193Z,68.00
2023-04-07T09:38:07.185Z,67.94
2023-04-07T09:40:36.876Z,68.16
2023-04-07T09:43:06.446Z,68.21
2023-04-07T09:45:39.532Z,68.72
2023-04-07T09:48:09.377Z,68.61
2023-04-07T09:50:40.168Z,68.84
2023-04-07T09:53:09.593Z,68.52
2023-04-07T09:55:40.970Z,68.68
2023-04-07T09:58:13.343Z,68.66
2023-04-07T10:00:42.180Z,68.36
2023-04-07T10:03:11.042Z,68.74
2023-04-07T10:05:39.605Z,68.82
2023-04-07T10:08:08.263Z,68.62
2023-04-07T10:10:37.382Z,68.44
2023-04-07T10:13:06.828Z,68.51
2023-04-07T10:15:37.023Z,68.50
2023-04-07T10:18:07.456Z,68.77
2023-04-07T10:20:39.785Z,68.64
2023-04-07T10:23:20.430Z,68.58
2023-04-07T10:25:52.784Z,68.70
2023-04-07T10:28:23.536Z,68.64
2023-04-07T10:30:52.634Z,68.76
2023-04-07T10:33:40.100Z,68.57
2023-04-07T10:36:08.775Z,68.49
2023-04-07T10:38:37.437Z,68.44
2023-04-07T10:41:24.892Z,68.59
2023-04-07T10:43:53.530Z,68.59
2023-04-07T10:46:22.490Z,68.18
2023-04-07T10:49:23.975Z,68.18
2023-04-07T10:52:10.830Z,68.62
2023-04-07T10:54:40.360Z,68.08
2023-04-07T10:57:10.830Z,68.17
2023-04-07T10:59:41.077Z,68.13
2023-04-07T11:02:13.278Z,67.96
2023-04-07T11:04:44.368Z,68.02
2023-04-07T11:07:14.641Z,68.11
2023-04-07T11:09:43.272Z,68.36
2023-04-07T11:12:25.471Z,68.10
2023-04-07T11:14:54.215Z,68.11
2023-04-07T11:17:23.528Z,68.21
2023-04-07T11:19:55.618Z,68.46
2023-04-07T11:22:30.017Z,68.63
2023-04-07T11:24:59.157Z,68.39
2023-04-07T11:27:28.677Z,68.47
2023-04-07T11:29:57.260Z,68.23
2023-04-07T11:32:30.802Z,68.33
2023-04-07T11:35:00.210Z,68.54
2023-04-07T11:37:29.348Z,68.61
2023-04-07T11:39:59.140Z,68.14
2023-04-07T11:42:41.309Z,68.15
2023-04-07T11:45:17.964Z,68.10
2023-04-07T11:47:46.990Z,68.03
2023-04-07T11:50:16.003Z,68.13
2023-04-07T11:52:45.803Z,68.15
2023-04-07T11:55:26.871Z,68.11
2023-04-07T11:57:55.565Z,67.97
2023-04-07T12:00:24.890Z,68.04
2023-04-07T12:02:53.902Z,67.91
2023-04-07T12:05:22.964Z,67.98
2023-04-07T12:07:56.199Z,68.27
2023-04-07T12:10:28.903Z,68.18
2023-04-07T12:12:59.400Z,68.33
2023-04-07T12:15:28.697Z,68.45
2023-04-07T12:17:57.772Z,68.32
2023-04-07T12:20:27.833Z,68.50
2023-04-07T12:22:57.409Z,68.45
2023-04-07T12:25:28.192Z,68.36
2023-04-07T12:27:57.217Z,68.39
2023-04-07T12:30:26.332Z,68.37
2023-04-07T12:32:55.272Z,68.30
2023-04-07T12:35:24.876Z,68.52
2023-04-07T12:37:54.135Z,68.03
2023-04-07T12:40:23.891Z,68.03
2023-04-07T12:42:52.920Z,68.16
2023-04-07T12:45:21.705Z,68.03
2023-04-07T12:47:50.587Z,68.13
2023-04-07T12:50:19.036Z,68.07
2023-04-07T12:52:47.695Z,67.97
2023-04-07T12:55:16.591Z,67.87
2023-04-07T12:57:48.549Z,67.83
2023-04-07T13:00:17.748Z,67.98
2023-04-07T13:02:46.874Z,67.73
2023-04-07T13:05:16.170Z,67.49
2023-04-07T13:07:46.141Z,67.57
2023-04-07T13:10:16.447Z,67.62
2023-04-07T13:12:45.479Z,67.39
2023-04-07T13:15:13.959Z,67.47
2023-04-07T13:17:42.980Z,67.25
2023-04-07T13:20:11.751Z,67.15
2023-04-07T13:22:49.205Z,67.33
2023-04-07T13:25:24.548Z,67.24
2023-04-07T13:27:53.511Z,67.19
2023-04-07T13:30:22.945Z,67.13
2023-04-07T13:32:52.402Z,67.17
2023-04-07T13:35:21.661Z,67.08
2023-04-07T13:37:50.835Z,67.18
2023-04-07T13:40:19.904Z,67.41
2023-04-07T13:42:48.977Z,67.27
2023-04-07T13:45:17.412Z,67.42
2023-04-07T13:47:46.595Z,67.39
2023-04-07T13:50:16.501Z,67.49
2023-04-07T13:52:45.579Z,67.39
2023-04-07T13:55:16.754Z,67.62
2023-04-07T13:57:45.895Z,67.72
2023-04-07T14:00:15.996Z,67.70
2023-04-07T14:02:46.314Z,67.68
2023-04-07T14:05:15.448Z,67.28
2023-04-07T14:07:44.991Z,67.56
2023-04-07T14:10:13.923Z,67.64
2023-04-07T14:12:42.952Z,67.69
2023-04-07T14:15:11.349Z,67.49
2023-04-07T14:17:40.389Z,67.31
2023-04-07T14:20:09.930Z,67.67
2023-04-07T14:22:39.352Z,67.99
2023-04-07T14:25:08.275Z,67.73
2023-04-07T14:27:37.518Z,67.72
2023-04-07T14:30:06.970Z,67.92
2023-04-07T14:32:36.224Z,67.77
2023-04-07T14:35:05.481Z,67.65
2023-04-07T14:37:36.508Z,67.68
2023-04-07T14:40:05.901Z,67.89
2023-04-07T14:42:34.718Z,68.16
2023-04-07T14:45:03.015Z,67.96
2023-04-07T14:47:32.085Z,68.01
2023-04-07T14:50:00.966Z,68.17
2023-04-07T14:52:30.744Z,68.28
2023-04-07T14:55:00.466Z,68.23
2023-04-07T14:57:29.491Z,68.30
2023-04-07T14:59:58.236Z,68.31
2023-04-07T15:02:29.379Z,68.64
2023-04-07T15:04:58.773Z,68.64
2023-04-07T15:07:26.935Z,68.84
2023-04-07T15:09:56.087Z,68.82
2023-04-07T15:12:24.641Z,68.78
2023-04-07T15:14:53.413Z,68.40
2023-04-07T15:17:30.287Z,68.29
2023-04-07T15:20:10.321Z,68.48
2023-04-07T15:22:38.534Z,68.43
2023-04-07T15:25:07.436Z,68.45
2023-04-07T15:27:36.165Z,68.36
2023-04-07T15:30:04.663Z,68.46
2023-04-07T15:32:33.006Z,68.39
2023-04-07T15:35:01.363Z,68.25
2023-04-07T15:37:29.904Z,68.20
2023-04-07T15:39:58.321Z,68.57
2023-04-07T15:42:26.946Z,68.47
2023-04-07T15:44:55.661Z,68.41
2023-04-07T15:47:24.515Z,68.58
2023-04-07T15:49:53.093Z,68.65
2023-04-07T15:52:21.710Z,68.74
2023-04-07T15:54:54.161Z,68.68
2023-04-07T15:57:22.511Z,68.54
2023-04-07T15:59:52.608Z,68.78
2023-04-07T16:02:21.044Z,68.78
2023-04-07T16:04:49.521Z,68.62
2023-04-07T16:07:19.293Z,68.88
2023-04-07T16:09:48.355Z,68.77
2023-04-07T16:12:17.368Z,68.84
2023-04-07T16:14:46.454Z,68.83
2023-04-07T16:17:14.908Z,69.00
2023-04-07T16:19:43.001Z,69.09
2023-04-07T16:22:11.631Z,69.04
2023-04-07T16:24:41.059Z,68.98
2023-04-07T16:27:09.357Z,68.94
2023-04-07T16:29:37.705Z,68.95
2023-04-07T16:32:07.116Z,69.24
2023-04-07T16:34:36.383Z,69.05
2023-04-07T16:37:05.110Z,69.19
2023-04-07T16:39:34.212Z,69.12
2023-04-07T16:42:02.611Z,69.12
2023-04-07T16:44:33.117Z,69.19
2023-04-07T16:47:03.271Z,69.31
2023-04-07T16:49:32.407Z,69.18
2023-04-07T16:52:01.090Z,69.32
2023-04-07T16:54:30.354Z,69.21
2023-04-07T16:56:59.070Z,69.40
2023-04-07T16:59:27.454Z,69.48
2023-04-07T17:01:55.888Z,69.37
2023-04-07T17:04:24.360Z,69.30
2023-04-07T17:06:53.381Z,69.56
2023-04-07T17:09:21.629Z,69.52
2023-04-07T17:11:49.886Z,69.39
2023-04-07T17:14:18.419Z,69.48
2023-04-07T17:16:47.355Z,69.59
2023-04-07T17:19:16.192Z,69.50
2023-04-07T17:21:45.483Z,69.44
2023-04-07T17:24:15.864Z,69.41
2023-04-07T17:26:47.118Z,69.64
2023-04-07T17:29:15.898Z,69.66
2023-04-07T17:31:45.000Z,69.63
2023-04-07T17:34:13.358Z,69.71
2023-04-07T17:36:41.961Z,69.78
2023-04-07T17:39:10.221Z,69.91
2023-04-07T17:41:38.686Z,69.76
2023-04-07T17:44:07.116Z,69.83
2023-04-07T17:46:36.393Z,69.72
2023-04-07T17:49:04.719Z,69.66
2023-04-07T17:51:33.123Z,69.67
2023-04-07T17:54:02.519Z,69.88
2023-04-07T17:56:31.519Z,69.83
2023-04-07T17:59:00.031Z,69.86
2023-04-07T18:01:28.498Z,69.90
2023-04-07T18:03:57.522Z,69.88
2023-04-07T18:06:26.036Z,69.81
2023-04-07T18:09:07.485Z,69.82
2023-04-07T18:11:36.960Z,69.92
2023-04-07T18:14:05.463Z,69.83
2023-04-07T18:16:34.847Z,69.70
2023-04-07T18:19:04.590Z,69.86
2023-04-07T18:21:35.435Z,69.75
2023-04-07T18:24:04.008Z,69.74
2023-04-07T18:26:32.796Z,69.81
2023-04-07T18:29:02.269Z,69.83
2023-04-07T18:31:33.237Z,69.88
2023-04-07T18:34:02.750Z,69.99
2023-04-07T18:36:32.057Z,70.06
2023-04-07T18:39:01.309Z,70.02
2023-04-07T18:41:29.842Z,70.12
2023-04-07T18:43:58.836Z,70.22
2023-04-07T18:46:27.859Z,70.17
2023-04-07T18:48:56.633Z,70.03
2023-04-07T18:51:24.943Z,69.88
2023-04-07T18:53:53.435Z,69.80
2023-04-07T18:56:21.907Z,69.87
2023-04-07T18:58:51.580Z,69.93
2023-04-07T19:01:20.204Z,70.03
2023-04-07T19:03:49.234Z,70.13
2023-04-07T19:06:17.899Z,70.25
2023-04-07T19:08:46.702Z,70.32
2023-04-07T19:11:15.060Z,70.17
2023-04-07T19:13:43.687Z,70.29
2023-04-07T19:16:12.009Z,70.51
2023-04-07T19:18:40.951Z,70.19
2023-04-07T19:21:10.082Z,70.23
2023-04-07T19:23:41.058Z,70.14
2023-04-07T19:26:11.001Z,70.28
2023-04-07T19:28:41.362Z,70.38
2023-04-07T19:31:11.005Z,70.34
2023-04-07T19:33:39.311Z,70.21
2023-04-07T19:36:07.742Z,70.22
2023-04-07T19:38:36.200Z,70.44
2023-04-07T19:41:05.412Z,70.35
2023-04-07T19:43:34.941Z,70.31
2023-04-07T19:46:03.971Z,70.22
2023-04-07T19:48:33.210Z,70.26
2023-04-07T19:51:02.327Z,70.38
2023-04-07T19:53:30.989Z,70.16
2023-04-07T19:56:02.493Z,70.36
2023-04-07T19:58:32.116Z,70.37
2023-04-07T20:01:01.173Z,70.29
2023-04-07T20:03:30.600Z,70.16
2023-04-07T20:06:00.499Z,70.15
2023-04-07T20:08:29.096Z,70.06
2023-04-07T20:10:58.929Z,69.99
2023-04-07T20:13:28.407Z,70.25
2023-04-07T20:15:57.092Z,70.11
2023-04-07T20:18:25.294Z,69.99
2023-04-07T20:20:58.859Z,70.02
2023-04-07T20:23:28.034Z,69.88
2023-04-07T20:25:56.718Z,70.12
2023-04-07T20:28:26.953Z,70.00
2023-04-07T20:30:55.510Z,70.00
2023-04-07T20:33:23.971Z,69.97
2023-04-07T20:35:53.085Z,70.04
2023-04-07T20:38:21.485Z,70.04
2023-04-07T20:40:49.757Z,69.91
2023-04-07T20:43:20.851Z,69.88
2023-04-07T20:45:49.940Z,69.92
2023-04-07T20:48:24.111Z,69.91
2023-04-07T20:50:53.833Z,69.82
2023-04-07T20:53:22.305Z,69.80
2023-04-07T20:55:51.480Z,69.98
2023-04-07T20:58:20.219Z,69.80
2023-04-07T21:00:55.761Z,70.01
2023-04-07T21:03:26.110Z,70.08
2023-04-07T21:05:56.872Z,70.17
2023-04-07T21:08:25.683Z,70.07
2023-04-07T21:10:55.165Z,70.03
2023-04-07T21:13:26.348Z,70.14
2023-04-07T21:15:57.970Z,70.05
2023-04-07T21:18:27.782Z,70.11
2023-04-07T21:20:58.345Z,70.00
2023-04-07T21:23:27.294Z,69.80
2023-04-07T21:25:59.632Z,69.86
2023-04-07T21:28:27.882Z,69.83
2023-04-07T21:30:57.424Z,69.73
2023-04-07T21:33:26.408Z,69.63
2023-04-07T21:35:56.774Z,69.86
2023-04-07T21:38:27.584Z,69.77
2023-04-07T21:40:57.998Z,69.73
2023-04-07T21:43:29.393Z,69.91
2023-04-07T21:45:58.821Z,69.74
2023-04-07T21:48:27.377Z,69.94
2023-04-07T21:50:57.639Z,69.73
2023-04-07T21:53:26.363Z,69.91
2023-04-07T21:55:54.757Z,69.76
2023-04-07T21:58:23.718Z,69.80
2023-04-07T22:00:53.728Z,69.77
2023-04-07T22:03:24.567Z,69.71
2023-04-07T22:05:53.128Z,69.55
2023-04-07T22:08:21.673Z,69.52
2023-04-07T22:10:51.885Z,69.73
2023-04-07T22:13:20.961Z,69.90
2023-04-07T22:15:51.521Z,69.82
2023-04-07T22:18:22.179Z,69.91
2023-04-07T22:20:52.738Z,69.45
2023-04-07T22:23:21.317Z,69.96
2023-04-07T22:25:50.518Z,69.57
2023-04-07T22:28:19.741Z,69.73
2023-04-07T22:30:47.795Z,70.11
2023-04-07T22:33:15.916Z,69.87
2023-04-07T22:35:44.862Z,69.60
2023-04-07T22:38:13.712Z,69.75
2023-04-07T22:40:42.120Z,69.62
2023-04-07T22:43:11.202Z,69.67
2023-04-07T22:45:40.422Z,69.52
2023-04-07T22:48:09.907Z,69.46
2023-04-07T22:50:38.536Z,69.54
2023-04-07T22:53:07.596Z,69.50
2023-04-07T22:55:36.747Z,69.15
2023-04-07T22:58:06.509Z,69.40
2023-04-07T23:00:35.746Z,69.37
2023-04-07T23:03:05.119Z,69.39
2023-04-07T23:05:34.366Z,69.34
2023-04-07T23:08:04.058Z,69.37
2023-04-07T23:10:32.705Z,69.40
2023-04-07T23:13:01.819Z,69.71
2023-04-07T23:15:30.974Z,69.20
2023-04-07T23:17:59.884Z,69.10
2023-04-07T23:20:28.705Z,69.48
2023-04-07T23:22:57.389Z,69.35
2023-04-07T23:25:28.175Z,69.36
2023-04-07T23:27:57.224Z,69.52
2023-04-07T23:30:26.770Z,69.79
2023-04-07T23:32:55.102Z,69.70
2023-04-07T23:35:24.198Z,69.56
2023-04-07T23:37:53.293Z,69.43
2023-04-07T23:40:22.654Z,69.42
2023-04-07T23:42:52.027Z,69.77
2023-04-07T23:45:22.045Z,69.49
2023-04-07T23:47:51.219Z,69.45
2023-04-07T23:50:19.642Z,69.49
2023-04-07T23:52:48.641Z,69.61
2023-04-07T23:55:17.622Z,69.30
2023-04-07T23:57:47.113Z,69.15
